Quinque, Virginia
Current Conditions -  °F | °C
As of 12:53 PM on Saturday 20 Dec 2014 (Local Time) from KCHO Reporting Station
Overcast Overcast  
Wind Chill: 32°   Ceiling: 9000
Heat Index: 37°   Visibility: 10mi
Dew Point: 24°   Wind: 6mph
Humidity: 59%   Direction: 130°SE
Pressure: 30.24"   Gusts: NA
Location:  38.25°N, 78.4°W
Report Text: KCHO 201753Z 13005KT 10SM OVC090 03/M04 A3024 RMK AO2 SLP244 T00281044 10028 21028 58020
Loading
Personal Weather Stations






























Interactive Weather Map New forecast layout! Learn more

10-Day Weather Forecast

Advertisements
Track Severe Weather on mobile